sensor_id;sensor_type;location;lat;lon;timestamp;pressure;altitude;pressure_sealevel;temperature;humidity
62791;BME280;48830;53.426;10.300;2024-01-11T00:00:23;103293.44;;;22.62;60.28
62791;BME280;48830;53.426;10.300;2024-01-11T00:02:48;103289.94;;;22.62;60.39
62791;BME280;48830;53.426;10.300;2024-01-11T00:05:14;103286.44;;;22.64;60.77
62791;BME280;48830;53.426;10.300;2024-01-11T00:07:39;103278.56;;;22.61;60.50
62791;BME280;48830;53.426;10.300;2024-01-11T00:10:05;103267.19;;;22.59;60.66
62791;BME280;48830;53.426;10.300;2024-01-11T00:12:30;103264.56;;;22.56;60.40
62791;BME280;48830;53.426;10.300;2024-01-11T00:14:57;103264.56;;;22.56;60.75
62791;BME280;48830;53.426;10.300;2024-01-11T00:17:24;103260.19;;;22.58;60.32
62791;BME280;48830;53.426;10.300;2024-01-11T00:19:49;103254.09;;;22.61;60.58
62791;BME280;48830;53.426;10.300;2024-01-11T00:22:15;103243.56;;;22.54;60.50
62791;BME280;48830;53.426;10.300;2024-01-11T00:24:41;103229.59;;;22.57;60.57
62791;BME280;48830;53.426;10.300;2024-01-11T00:27:06;103219.09;;;22.51;61.00
62791;BME280;48830;53.426;10.300;2024-01-11T00:29:32;103214.72;;;22.50;60.75
62791;BME280;48830;53.426;10.300;2024-01-11T00:31:57;103199.84;;;22.47;60.97
62791;BME280;48830;53.426;10.300;2024-01-11T00:34:23;103191.16;;;22.50;60.92
62791;BME280;48830;53.426;10.300;2024-01-11T00:36:49;103205.09;;;22.47;60.80
62791;BME280;48830;53.426;10.300;2024-01-11T00:39:14;103204.19;;;22.44;61.03
62791;BME280;48830;53.426;10.300;2024-01-11T00:41:39;103195.50;;;22.46;60.89
62791;BME280;48830;53.426;10.300;2024-01-11T00:44:05;103199.84;;;22.44;61.17
62791;BME280;48830;53.426;10.300;2024-01-11T00:46:33;103187.59;;;22.43;60.94
62791;BME280;48830;53.426;10.300;2024-01-11T00:48:58;103178.88;;;22.41;60.91
62791;BME280;48830;53.426;10.300;2024-01-11T00:51:24;103186.72;;;22.43;60.80
62791;BME280;48830;53.426;10.300;2024-01-11T00:53:49;103186.75;;;22.46;60.64
62791;BME280;48830;53.426;10.300;2024-01-11T00:56:16;103197.22;;;22.41;61.02
62791;BME280;48830;53.426;10.300;2024-01-11T00:58:42;103202.44;;;22.41;60.82
62791;BME280;48830;53.426;10.300;2024-01-11T01:01:11;103199.84;;;22.40;61.07
62791;BME280;48830;53.426;10.300;2024-01-11T01:03:37;103184.09;;;22.37;61.17
62791;BME280;48830;53.426;10.300;2024-01-11T01:06:02;103171.00;;;22.41;60.83
62791;BME280;48830;53.426;10.300;2024-01-11T01:08:28;103171.00;;;22.40;60.88
62791;BME280;48830;53.426;10.300;2024-01-11T01:10:54;103165.75;;;22.41;60.81
62791;BME280;48830;53.426;10.300;2024-01-11T01:13:20;103155.28;;;22.43;60.53
62791;BME280;48830;53.426;10.300;2024-01-11T01:15:46;103158.78;;;22.39;60.71
62791;BME280;48830;53.426;10.300;2024-01-11T01:18:11;103157.00;;;22.38;60.61
62791;BME280;48830;53.426;10.300;2024-01-11T01:20:37;103154.41;;;22.41;60.49
62791;BME280;48830;53.426;10.300;2024-01-11T01:23:02;103154.38;;;22.36;60.82
62791;BME280;48830;53.426;10.300;2024-01-11T01:25:28;103161.38;;;22.34;60.69
62791;BME280;48830;53.426;10.300;2024-01-11T01:27:55;103143.88;;;22.30;60.94
62791;BME280;48830;53.426;10.300;2024-01-11T01:30:20;103142.13;;;22.31;60.64
62791;BME280;48830;53.426;10.300;2024-01-11T01:32:46;103145.63;;;22.33;60.66
62791;BME280;48830;53.426;10.300;2024-01-11T01:35:11;103152.63;;;22.35;60.46
62791;BME280;48830;53.426;10.300;2024-01-11T01:37:36;103170.97;;;22.37;60.64
62791;BME280;48830;53.426;10.300;2024-01-11T01:40:02;103165.72;;;22.29;60.60
62791;BME280;48830;53.426;10.300;2024-01-11T01:42:28;103170.06;;;22.33;60.64
62791;BME280;48830;53.426;10.300;2024-01-11T01:44:53;103187.56;;;22.30;60.74
62791;BME280;48830;53.426;10.300;2024-01-11T01:47:19;103188.44;;;22.32;60.83
62791;BME280;48830;53.426;10.300;2024-01-11T01:49:45;103176.19;;;22.31;60.53
62791;BME280;48830;53.426;10.300;2024-01-11T01:52:13;103156.97;;;22.30;60.58
62791;BME280;48830;53.426;10.300;2024-01-11T01:54:41;103159.59;;;22.32;60.81
62791;BME280;48830;53.426;10.300;2024-01-11T01:57:08;103160.47;;;22.31;60.52
62791;BME280;48830;53.426;10.300;2024-01-11T01:59:35;103147.38;;;22.29;60.78
62791;BME280;48830;53.426;10.300;2024-01-11T02:02:03;103153.50;;;22.30;60.40
62791;BME280;48830;53.426;10.300;2024-01-11T02:04:30;103158.72;;;22.30;60.20
62791;BME280;48830;53.426;10.300;2024-01-11T02:06:56;103163.09;;;22.32;60.43
62791;BME280;48830;53.426;10.300;2024-01-11T02:09:23;103195.41;;;22.31;60.03
62791;BME280;48830;53.426;10.300;2024-01-11T02:11:52;103190.16;;;22.31;60.39
62791;BME280;48830;53.426;10.300;2024-01-11T02:14:19;103198.03;;;22.30;60.22
62791;BME280;48830;53.426;10.300;2024-01-11T02:16:45;103219.88;;;22.29;60.36
62791;BME280;48830;53.426;10.300;2024-01-11T02:19:13;103213.75;;;22.30;60.08
62791;BME280;48830;53.426;10.300;2024-01-11T02:21:42;103205.88;;;22.26;59.87
62791;BME280;48830;53.426;10.300;2024-01-11T02:24:08;103197.13;;;22.27;60.16
62791;BME280;48830;53.426;10.300;2024-01-11T02:26:34;103208.50;;;22.26;60.15
62791;BME280;48830;53.426;10.300;2024-01-11T02:28:59;103202.38;;;22.27;60.09
62791;BME280;48830;53.426;10.300;2024-01-11T02:31:25;103191.03;;;22.25;60.44
62791;BME280;48830;53.426;10.300;2024-01-11T02:33:55;103213.72;;;22.23;60.22
62791;BME280;48830;53.426;10.300;2024-01-11T02:36:21;103206.72;;;22.21;59.98
62791;BME280;48830;53.426;10.300;2024-01-11T02:38:47;103200.59;;;22.17;59.91
62791;BME280;48830;53.426;10.300;2024-01-11T02:41:16;103196.22;;;22.19;60.18
62791;BME280;48830;53.426;10.300;2024-01-11T02:43:46;103210.19;;;22.17;60.21
62791;BME280;48830;53.426;10.300;2024-01-11T02:46:12;103220.66;;;22.15;60.23
62791;BME280;48830;53.426;10.300;2024-01-11T02:48:37;103225.03;;;22.16;59.97
62791;BME280;48830;53.426;10.300;2024-01-11T02:51:03;103223.28;;;22.15;59.90
62791;BME280;48830;53.426;10.300;2024-01-11T02:53:28;103212.78;;;22.15;60.10
62791;BME280;48830;53.426;10.300;2024-01-11T02:55:59;103198.81;;;22.13;59.92
62791;BME280;48830;53.426;10.300;2024-01-11T02:58:25;103183.97;;;22.14;59.82
62791;BME280;48830;53.426;10.300;2024-01-11T03:00:50;103188.34;;;22.13;59.83
62791;BME280;48830;53.426;10.300;2024-01-11T03:03:16;103190.06;;;22.11;60.10
62791;BME280;48830;53.426;10.300;2024-01-11T03:05:41;103198.78;;;22.10;60.25
62791;BME280;48830;53.426;10.300;2024-01-11T03:08:06;103193.56;;;22.10;60.08
62791;BME280;48830;53.426;10.300;2024-01-11T03:10:32;103190.06;;;22.11;60.00
62791;BME280;48830;53.426;10.300;2024-01-11T03:12:57;103178.72;;;22.11;59.96
62791;BME280;48830;53.426;10.300;2024-01-11T03:15:23;103179.59;;;22.11;60.02
62791;BME280;48830;53.426;10.300;2024-01-11T03:17:48;103177.00;;;22.13;60.45
62791;BME280;48830;53.426;10.300;2024-01-11T03:20:14;103183.09;;;22.13;59.95
62791;BME280;48830;53.426;10.300;2024-01-11T03:22:45;103187.47;;;22.13;60.21
62791;BME280;48830;53.426;10.300;2024-01-11T03:25:11;103200.56;;;22.14;60.30
62791;BME280;48830;53.426;10.300;2024-01-11T03:27:36;103184.84;;;22.14;60.26
62791;BME280;48830;53.426;10.300;2024-01-11T03:30:01;103186.59;;;22.15;60.28
62791;BME280;48830;53.426;10.300;2024-01-11T03:32:27;103185.72;;;22.16;59.97
62791;BME280;48830;53.426;10.300;2024-01-11T03:34:52;103190.09;;;22.14;60.09
62791;BME280;48830;53.426;10.300;2024-01-11T03:37:18;103192.72;;;22.16;60.21
62791;BME280;48830;53.426;10.300;2024-01-11T03:39:43;103190.13;;;22.17;59.84
62791;BME280;48830;53.426;10.300;2024-01-11T03:42:08;103185.75;;;22.18;59.91
62791;BME280;48830;53.426;10.300;2024-01-11T03:44:36;103184.88;;;22.17;60.26
62791;BME280;48830;53.426;10.300;2024-01-11T03:47:02;103181.34;;;22.17;60.02
62791;BME280;48830;53.426;10.300;2024-01-11T03:49:28;103180.47;;;22.16;60.18
62791;BME280;48830;53.426;10.300;2024-01-11T03:51:53;103188.34;;;22.16;60.27
62791;BME280;48830;53.426;10.300;2024-01-11T03:54:18;103211.94;;;22.18;60.16
62791;BME280;48830;53.426;10.300;2024-01-11T03:56:44;103215.44;;;22.18;60.16
62791;BME280;48830;53.426;10.300;2024-01-11T03:59:10;103207.59;;;22.18;59.65
62791;BME280;48830;53.426;10.300;2024-01-11T04:01:42;103200.59;;;22.19;60.00
62791;BME280;48830;53.426;10.300;2024-01-11T04:04:07;103205.84;;;22.20;59.97
62791;BME280;48830;53.426;10.300;2024-01-11T04:06:33;103201.50;;;22.22;59.88
62791;BME280;48830;53.426;10.300;2024-01-11T04:08:58;103186.63;;;22.21;59.79
62791;BME280;48830;53.426;10.300;2024-01-11T04:11:27;103175.28;;;22.21;59.79
62791;BME280;48830;53.426;10.300;2024-01-11T04:13:53;103168.31;;;22.23;59.61
62791;BME280;48830;53.426;10.300;2024-01-11T04:16:18;103155.22;;;22.24;59.70
62791;BME280;48830;53.426;10.300;2024-01-11T04:18:44;103132.50;;;22.25;59.82
62791;BME280;48830;53.426;10.300;2024-01-11T04:21:23;103129.00;;;22.27;59.56
62791;BME280;48830;53.426;10.300;2024-01-11T04:23:49;103124.63;;;22.26;60.15
62791;BME280;48830;53.426;10.300;2024-01-11T04:26:15;103140.38;;;22.28;59.79
62791;BME280;48830;53.426;10.300;2024-01-11T04:28:41;103125.53;;;22.29;59.78
62791;BME280;48830;53.426;10.300;2024-01-11T04:31:08;103123.78;;;22.31;59.84
62791;BME280;48830;53.426;10.300;2024-01-11T04:33:33;103122.03;;;22.33;59.48
62791;BME280;48830;53.426;10.300;2024-01-11T04:35:59;103126.44;;;22.34;59.41
62791;BME280;48830;53.426;10.300;2024-01-11T04:38:24;103120.28;;;22.33;59.28
62791;BME280;48830;53.426;10.300;2024-01-11T04:40:49;103122.06;;;22.34;59.37
62791;BME280;48830;53.426;10.300;2024-01-11T04:43:15;103106.34;;;22.36;59.63
62791;BME280;48830;53.426;10.300;2024-01-11T04:45:40;103094.13;;;22.35;59.74
62791;BME280;48830;53.426;10.300;2024-01-11T04:48:06;103097.59;;;22.37;59.45
62791;BME280;48830;53.426;10.300;2024-01-11T04:50:31;103097.59;;;22.37;59.50
62791;BME280;48830;53.426;10.300;2024-01-11T04:52:57;103099.34;;;22.38;59.32
62791;BME280;48830;53.426;10.300;2024-01-11T04:55:22;103106.34;;;22.37;59.35
62791;BME280;48830;53.426;10.300;2024-01-11T04:57:47;103094.97;;;22.37;59.30
62791;BME280;48830;53.426;10.300;2024-01-11T05:00:13;103077.50;;;22.36;59.00
62791;BME280;48830;53.426;10.300;2024-01-11T05:02:38;103065.28;;;22.36;59.00
62791;BME280;48830;53.426;10.300;2024-01-11T05:05:04;103086.25;;;22.38;59.20
62791;BME280;48830;53.426;10.300;2024-01-11T05:07:29;103085.38;;;22.36;59.28
62791;BME280;48830;53.426;10.300;2024-01-11T05:09:55;103103.72;;;22.37;59.18
62791;BME280;48830;53.426;10.300;2024-01-11T05:12:20;103117.69;;;22.38;58.85
62791;BME280;48830;53.426;10.300;2024-01-11T05:14:46;103116.84;;;22.39;59.26
62791;BME280;48830;53.426;10.300;2024-01-11T05:17:11;103116.84;;;22.39;59.25
62791;BME280;48830;53.426;10.300;2024-01-11T05:19:37;103108.09;;;22.40;58.96
62791;BME280;48830;53.426;10.300;2024-01-11T05:22:03;103088.00;;;22.40;59.33
62791;BME280;48830;53.426;10.300;2024-01-11T05:24:28;103085.38;;;22.42;59.11
62791;BME280;48830;53.426;10.300;2024-01-11T05:26:53;103081.88;;;22.43;59.29
62791;BME280;48830;53.426;10.300;2024-01-11T05:29:19;103090.63;;;22.43;58.97
62791;BME280;48830;53.426;10.300;2024-01-11T05:31:44;103108.13;;;22.44;59.10
62791;BME280;48830;53.426;10.300;2024-01-11T05:34:10;103106.38;;;22.45;59.20
62791;BME280;48830;53.426;10.300;2024-01-11T05:36:38;103117.72;;;22.45;58.92
62791;BME280;48830;53.426;10.300;2024-01-11T05:39:03;103129.09;;;22.46;58.88
62791;BME280;48830;53.426;10.300;2024-01-11T05:41:29;103135.19;;;22.46;59.11
62791;BME280;48830;53.426;10.300;2024-01-11T05:43:54;103137.81;;;22.46;58.72
62791;BME280;48830;53.426;10.300;2024-01-11T05:46:20;103140.44;;;22.45;58.80
62791;BME280;48830;53.426;10.300;2024-01-11T05:48:45;103134.34;;;22.46;58.54
62791;BME280;48830;53.426;10.300;2024-01-11T05:51:10;103125.59;;;22.47;58.88
62791;BME280;48830;53.426;10.300;2024-01-11T05:53:36;103123.84;;;22.47;59.12
62791;BME280;48830;53.426;10.300;2024-01-11T05:56:07;103114.22;;;22.48;58.69
62791;BME280;48830;53.426;10.300;2024-01-11T05:58:33;103115.09;;;22.48;58.50
62791;BME280;48830;53.426;10.300;2024-01-11T06:00:58;103125.63;;;22.50;58.51
62791;BME280;48830;53.426;10.300;2024-01-11T06:03:24;103116.88;;;22.49;58.61
62791;BME280;48830;53.426;10.300;2024-01-11T06:05:50;103115.13;;;22.50;59.01
62791;BME280;48830;53.426;10.300;2024-01-11T06:08:15;103094.16;;;22.50;58.75
62791;BME280;48830;53.426;10.300;2024-01-11T06:10:42;103090.66;;;22.51;58.73
62791;BME280;48830;53.426;10.300;2024-01-11T06:13:07;103090.66;;;22.51;58.90
62791;BME280;48830;53.426;10.300;2024-01-11T06:15:34;103087.16;;;22.52;58.96
62791;BME280;48830;53.426;10.300;2024-01-11T06:17:59;103077.53;;;22.54;58.69
62791;BME280;48830;53.426;10.300;2024-01-11T06:20:25;103080.19;;;22.59;59.46
62791;BME280;48830;53.426;10.300;2024-01-11T06:22:51;103097.66;;;22.58;59.48
62791;BME280;48830;53.426;10.300;2024-01-11T06:25:16;103095.91;;;22.63;59.61
62791;BME280;48830;53.426;10.300;2024-01-11T06:27:42;103097.66;;;22.64;60.15
62791;BME280;48830;53.426;10.300;2024-01-11T06:30:09;103104.69;;;22.67;59.96
62791;BME280;48830;53.426;10.300;2024-01-11T06:32:34;103112.53;;;22.68;59.94
62791;BME280;48830;53.426;10.300;2024-01-11T06:35:00;103102.06;;;22.73;60.48
62791;BME280;48830;53.426;10.300;2024-01-11T06:37:25;103095.94;;;22.74;60.64
62791;BME280;48830;53.426;10.300;2024-01-11T06:39:51;103091.56;;;22.73;60.39
62791;BME280;48830;53.426;10.300;2024-01-11T06:42:16;103088.06;;;22.75;60.57
62791;BME280;48830;53.426;10.300;2024-01-11T06:44:42;103093.31;;;22.74;60.18
62791;BME280;48830;53.426;10.300;2024-01-11T06:47:07;103103.78;;;22.75;60.65
62791;BME280;48830;53.426;10.300;2024-01-11T06:49:33;103108.19;;;22.79;60.31
62791;BME280;48830;53.426;10.300;2024-01-11T06:51:59;103100.31;;;22.79;60.11
62791;BME280;48830;53.426;10.300;2024-01-11T06:54:24;103108.19;;;22.79;59.79
62791;BME280;48830;53.426;10.300;2024-01-11T06:56:50;103102.94;;;22.81;59.62
62791;BME280;48830;53.426;10.300;2024-01-11T06:59:16;103095.06;;;22.79;59.54
62791;BME280;48830;53.426;10.300;2024-01-11T07:01:41;103101.19;;;22.78;60.04
62791;BME280;48830;53.426;10.300;2024-01-11T07:04:06;103108.19;;;22.79;59.25
62791;BME280;48830;53.426;10.300;2024-01-11T07:06:32;103109.94;;;22.80;59.55
62791;BME280;48830;53.426;10.300;2024-01-11T07:08:57;103104.72;;;22.82;59.72
62791;BME280;48830;53.426;10.300;2024-01-11T07:11:23;103111.66;;;22.82;60.02
62791;BME280;48830;53.426;10.300;2024-01-11T07:13:48;103110.81;;;22.84;60.17
62791;BME280;48830;53.426;10.300;2024-01-11T07:16:14;103109.06;;;22.83;60.39
62791;BME280;48830;53.426;10.300;2024-01-11T07:18:39;103102.97;;;22.83;59.65
62791;BME280;48830;53.426;10.300;2024-01-11T07:21:06;103106.44;;;22.82;60.27
62791;BME280;48830;53.426;10.300;2024-01-11T07:23:31;103116.06;;;22.86;60.83
62791;BME280;48830;53.426;10.300;2024-01-11T07:25:57;103128.28;;;22.87;61.78
62791;BME280;48830;53.426;10.300;2024-01-11T07:28:23;103131.81;;;22.92;61.37
62791;BME280;48830;53.426;10.300;2024-01-11T07:30:51;103137.97;;;22.94;61.50
62791;BME280;48830;53.426;10.300;2024-01-11T07:33:19;103137.97;;;22.95;61.78
62791;BME280;48830;53.426;10.300;2024-01-11T07:35:44;103134.47;;;22.98;61.92
62791;BME280;48830;53.426;10.300;2024-01-11T07:38:11;103133.59;;;22.97;62.06
62791;BME280;48830;53.426;10.300;2024-01-11T07:40:36;103135.34;;;22.98;61.69
62791;BME280;48830;53.426;10.300;2024-01-11T07:43:02;103144.09;;;23.02;61.89
62791;BME280;48830;53.426;10.300;2024-01-11T07:45:29;103144.09;;;23.05;61.76
62791;BME280;48830;53.426;10.300;2024-01-11T07:47:55;103137.97;;;23.04;61.61
62791;BME280;48830;53.426;10.300;2024-01-11T07:50:21;103133.59;;;23.07;61.75
62791;BME280;48830;53.426;10.300;2024-01-11T07:52:47;103129.25;;;23.04;62.00
62791;BME280;48830;53.426;10.300;2024-01-11T07:55:12;103139.72;;;23.05;61.98
62791;BME280;48830;53.426;10.300;2024-01-11T07:57:38;103151.09;;;23.08;61.54
62791;BME280;48830;53.426;10.300;2024-01-11T08:00:05;103151.97;;;23.05;61.48
62791;BME280;48830;53.426;10.300;2024-01-11T08:02:40;103148.47;;;23.04;61.75
62791;BME280;48830;53.426;10.300;2024-01-11T08:05:06;103137.09;;;23.05;61.62
62791;BME280;48830;53.426;10.300;2024-01-11T08:07:31;103143.22;;;23.08;61.53
62791;BME280;48830;53.426;10.300;2024-01-11T08:09:56;103139.72;;;23.10;61.80
62791;BME280;48830;53.426;10.300;2024-01-11T08:12:22;103144.97;;;23.10;61.39
62791;BME280;48830;53.426;10.300;2024-01-11T08:14:47;103146.72;;;23.11;61.68
62791;BME280;48830;53.426;10.300;2024-01-11T08:17:13;103139.72;;;23.13;61.22
62791;BME280;48830;53.426;10.300;2024-01-11T08:19:40;103137.13;;;23.15;61.27
62791;BME280;48830;53.426;10.300;2024-01-11T08:22:06;103133.59;;;23.17;61.51
62791;BME280;48830;53.426;10.300;2024-01-11T08:24:31;103133.59;;;23.17;61.27
62791;BME280;48830;53.426;10.300;2024-01-11T08:26:57;103130.97;;;23.17;61.28
62791;BME280;48830;53.426;10.300;2024-01-11T08:29:23;103124.84;;;23.17;61.41
62791;BME280;48830;53.426;10.300;2024-01-11T08:31:49;103124.84;;;23.18;61.17
62791;BME280;48830;53.426;10.300;2024-01-11T08:34:14;103128.34;;;23.19;61.49
62791;BME280;48830;53.426;10.300;2024-01-11T08:36:40;103129.25;;;23.19;61.03
62791;BME280;48830;53.426;10.300;2024-01-11T08:39:06;103124.00;;;23.19;61.36
62791;BME280;48830;53.426;10.300;2024-01-11T08:41:32;103126.63;;;23.21;61.30
62791;BME280;48830;53.426;10.300;2024-01-11T08:43:58;103122.25;;;23.21;61.05
62791;BME280;48830;53.426;10.300;2024-01-11T08:46:27;103117.00;;;23.21;60.69
62791;BME280;48830;53.426;10.300;2024-01-11T08:48:53;103120.47;;;23.19;61.26
62791;BME280;48830;53.426;10.300;2024-01-11T08:51:19;103118.72;;;23.18;61.40
62791;BME280;48830;53.426;10.300;2024-01-11T08:53:45;103109.97;;;23.17;61.13
62791;BME280;48830;53.426;10.300;2024-01-11T08:56:10;103100.38;;;23.16;61.13
62791;BME280;48830;53.426;10.300;2024-01-11T08:58:36;103104.75;;;23.17;61.02
62791;BME280;48830;53.426;10.300;2024-01-11T09:01:02;103101.22;;;23.18;61.29
62791;BME280;48830;53.426;10.300;2024-01-11T09:03:28;103119.59;;;23.17;61.28
62791;BME280;48830;53.426;10.300;2024-01-11T09:05:54;103118.75;;;23.16;61.02
62791;BME280;48830;53.426;10.300;2024-01-11T09:08:22;103113.50;;;23.16;60.84
62791;BME280;48830;53.426;10.300;2024-01-11T09:10:48;103107.38;;;23.16;60.78
62791;BME280;48830;53.426;10.300;2024-01-11T09:13:13;103103.88;;;23.15;61.10
62791;BME280;48830;53.426;10.300;2024-01-11T09:15:41;103096.88;;;23.16;61.03
62791;BME280;48830;53.426;10.300;2024-01-11T09:18:06;103094.25;;;23.14;60.83
62791;BME280;48830;53.426;10.300;2024-01-11T09:20:31;103089.00;;;23.17;61.03
62791;BME280;48830;53.426;10.300;2024-01-11T09:22:57;103092.50;;;23.16;60.63
62791;BME280;48830;53.426;10.300;2024-01-11T09:25:22;103096.00;;;23.15;60.93
62791;BME280;48830;53.426;10.300;2024-01-11T09:27:49;103091.63;;;23.14;60.77
62791;BME280;48830;53.426;10.300;2024-01-11T09:30:14;103096.88;;;23.16;60.65
62791;BME280;48830;53.426;10.300;2024-01-11T09:32:40;103094.25;;;23.16;61.00
62791;BME280;48830;53.426;10.300;2024-01-11T09:35:06;103088.09;;;23.14;60.64
62791;BME280;48830;53.426;10.300;2024-01-11T09:37:31;103084.63;;;23.15;60.59
62791;BME280;48830;53.426;10.300;2024-01-11T09:39:57;103082.00;;;23.16;59.88
62791;BME280;48830;53.426;10.300;2024-01-11T09:42:22;103092.50;;;23.18;60.60
62791;BME280;48830;53.426;10.300;2024-01-11T09:44:48;103096.84;;;23.19;61.06
62791;BME280;48830;53.426;10.300;2024-01-11T09:47:15;103093.34;;;23.18;60.61
62791;BME280;48830;53.426;10.300;2024-01-11T09:49:43;103098.59;;;23.18;60.45
62791;BME280;48830;53.426;10.300;2024-01-11T09:52:11;103096.88;;;23.17;60.59
62791;BME280;48830;53.426;10.300;2024-01-11T09:54:38;103096.84;;;23.19;60.59
62791;BME280;48830;53.426;10.300;2024-01-11T09:57:06;103089.00;;;23.17;60.86
62791;BME280;48830;53.426;10.300;2024-01-11T09:59:32;103087.25;;;23.19;60.83
62791;BME280;48830;53.426;10.300;2024-01-11T10:02:00;103087.25;;;23.19;60.62
62791;BME280;48830;53.426;10.300;2024-01-11T10:04:26;103089.88;;;23.19;60.71
62791;BME280;48830;53.426;10.300;2024-01-11T10:06:53;103083.75;;;23.20;60.56
62791;BME280;48830;53.426;10.300;2024-01-11T10:09:19;103082.00;;;23.19;60.75
62791;BME280;48830;53.426;10.300;2024-01-11T10:11:45;103068.00;;;23.19;60.66
62791;BME280;48830;53.426;10.300;2024-01-11T10:14:13;103069.75;;;23.18;60.49
62791;BME280;48830;53.426;10.300;2024-01-11T10:16:39;103075.88;;;23.17;60.48
62791;BME280;48830;53.426;10.300;2024-01-11T10:19:06;103078.50;;;23.19;60.79
62791;BME280;48830;53.426;10.300;2024-01-11T10:21:31;103075.88;;;23.19;60.27
62791;BME280;48830;53.426;10.300;2024-01-11T10:23:57;103081.13;;;23.19;60.83
62791;BME280;48830;53.426;10.300;2024-01-11T10:26:24;103082.88;;;23.18;60.75
62791;BME280;48830;53.426;10.300;2024-01-11T10:28:49;103068.00;;;23.17;60.63
62791;BME280;48830;53.426;10.300;2024-01-11T10:31:15;103064.50;;;23.18;61.04
62791;BME280;48830;53.426;10.300;2024-01-11T10:33:41;103068.00;;;23.17;60.49
62791;BME280;48830;53.426;10.300;2024-01-11T10:36:06;103067.13;;;23.18;60.37
62791;BME280;48830;53.426;10.300;2024-01-11T10:38:39;103067.13;;;23.18;60.66
62791;BME280;48830;53.426;10.300;2024-01-11T10:41:05;103074.13;;;23.18;60.88
62791;BME280;48830;53.426;10.300;2024-01-11T10:43:36;103079.41;;;23.19;60.42
62791;BME280;48830;53.426;10.300;2024-01-11T10:46:03;103081.13;;;23.20;60.38
62791;BME280;48830;53.426;10.300;2024-01-11T10:48:33;103090.75;;;23.20;60.45
62791;BME280;48830;53.426;10.300;2024-01-11T10:51:05;103088.13;;;23.20;60.83
62791;BME280;48830;53.426;10.300;2024-01-11T10:53:46;103106.50;;;23.21;60.43
62791;BME280;48830;53.426;10.300;2024-01-11T10:56:13;103113.50;;;23.21;60.91
62791;BME280;48830;53.426;10.300;2024-01-11T10:58:42;103122.25;;;23.21;60.59
62791;BME280;48830;53.426;10.300;2024-01-11T11:01:09;103118.75;;;23.21;60.29
62791;BME280;48830;53.426;10.300;2024-01-11T11:03:36;103097.75;;;23.21;60.69
62791;BME280;48830;53.426;10.300;2024-01-11T11:06:02;103108.22;;;23.22;60.31
62791;BME280;48830;53.426;10.300;2024-01-11T11:08:29;103092.50;;;23.22;60.25
62791;BME280;48830;53.426;10.300;2024-01-11T11:10:55;103094.25;;;23.20;60.08
62791;BME280;48830;53.426;10.300;2024-01-11T11:13:25;103089.88;;;23.22;60.60
62791;BME280;48830;53.426;10.300;2024-01-11T11:15:54;103081.13;;;23.22;60.12
62791;BME280;48830;53.426;10.300;2024-01-11T11:18:23;103091.63;;;23.22;60.67
62791;BME280;48830;53.426;10.300;2024-01-11T11:20:50;103092.50;;;23.19;59.99
62791;BME280;48830;53.426;10.300;2024-01-11T11:23:17;103087.25;;;23.21;60.11
62791;BME280;48830;53.426;10.300;2024-01-11T11:25:47;103084.63;;;23.21;60.06
62791;BME280;48830;53.426;10.300;2024-01-11T11:28:15;103073.25;;;23.20;60.47
62791;BME280;48830;53.426;10.300;2024-01-11T11:30:43;103055.78;;;23.19;60.53
62791;BME280;48830;53.426;10.300;2024-01-11T11:33:24;103052.28;;;23.20;60.42
62791;BME280;48830;53.426;10.300;2024-01-11T11:35:54;103041.75;;;23.22;60.14
62791;BME280;48830;53.426;10.300;2024-01-11T11:38:26;103050.50;;;23.22;60.30
62791;BME280;48830;53.426;10.300;2024-01-11T11:40:53;103052.25;;;23.23;60.00
62791;BME280;48830;53.426;10.300;2024-01-11T11:43:23;103070.63;;;23.23;60.07
62791;BME280;48830;53.426;10.300;2024-01-11T11:45:50;103061.00;;;23.24;60.50
62791;BME280;48830;53.426;10.300;2024-01-11T11:51:11;103059.28;;;23.06;58.54
62791;BME280;48830;53.426;10.300;2024-01-11T11:53:38;103056.66;;;23.04;59.73
62791;BME280;48830;53.426;10.300;2024-01-11T11:56:05;103053.16;;;23.09;60.10
62791;BME280;48830;53.426;10.300;2024-01-11T11:58:32;103046.16;;;23.15;60.38
62791;BME280;48830;53.426;10.300;2024-01-11T12:00:59;103038.28;;;23.17;60.19
62791;BME280;48830;53.426;10.300;2024-01-11T12:03:34;103019.88;;;23.18;60.61
62791;BME280;48830;53.426;10.300;2024-01-11T12:06:07;103012.03;;;23.21;60.91
62791;BME280;48830;53.426;10.300;2024-01-11T12:08:34;103014.66;;;23.21;61.08
62791;BME280;48830;53.426;10.300;2024-01-11T12:11:00;103000.66;;;23.22;61.11
62791;BME280;48830;53.426;10.300;2024-01-11T12:13:26;103001.53;;;23.21;60.58
62791;BME280;48830;53.426;10.300;2024-01-11T12:15:52;103005.03;;;23.20;60.59
62791;BME280;48830;53.426;10.300;2024-01-11T12:18:17;103003.28;;;23.22;60.92
62791;BME280;48830;53.426;10.300;2024-01-11T12:20:43;103006.81;;;22.60;53.18
62791;BME280;48830;53.426;10.300;2024-01-11T12:23:08;103008.53;;;22.61;54.78
62791;BME280;48830;53.426;10.300;2024-01-11T12:25:34;103004.19;;;22.71;57.71
62791;BME280;48830;53.426;10.300;2024-01-11T12:28:00;103003.28;;;22.84;58.62
62791;BME280;48830;53.426;10.300;2024-01-11T12:30:26;102997.22;;;22.93;58.94
62791;BME280;48830;53.426;10.300;2024-01-11T12:32:55;103002.44;;;22.99;59.39
62791;BME280;48830;53.426;10.300;2024-01-11T12:35:21;102994.56;;;23.02;59.59
62791;BME280;48830;53.426;10.300;2024-01-11T12:37:54;102999.78;;;23.08;59.44